sensor_id;sensor_type;location;lat;lon;timestamp;P1;durP1;ratioP1;P2;durP2;ratioP2
2313;SDS011;42279;51.388;7.000;2022-08-19T00:01:44;10.88;;;10.27;;
2313;SDS011;42279;51.388;7.000;2022-08-19T00:04:12;10.68;;;10.07;;
2313;SDS011;42279;51.388;7.000;2022-08-19T00:06:39;11.40;;;10.50;;
2313;SDS011;42279;51.388;7.000;2022-08-19T00:09:06;10.32;;;9.60;;
2313;SDS011;42279;51.388;7.000;2022-08-19T00:11:33;10.30;;;9.70;;
2313;SDS011;42279;51.388;7.000;2022-08-19T00:14:00;11.30;;;10.50;;
2313;SDS011;42279;51.388;7.000;2022-08-19T00:16:27;11.27;;;10.48;;
2313;SDS011;42279;51.388;7.000;2022-08-19T00:18:54;11.32;;;10.57;;
2313;SDS011;42279;51.388;7.000;2022-08-19T00:21:20;10.85;;;10.05;;
2313;SDS011;42279;51.388;7.000;2022-08-19T00:23:46;11.20;;;10.60;;
2313;SDS011;42279;51.388;7.000;2022-08-19T00:26:12;10.85;;;10.15;;
2313;SDS011;42279;51.388;7.000;2022-08-19T00:28:38;11.30;;;10.70;;
2313;SDS011;42279;51.388;7.000;2022-08-19T00:31:05;11.87;;;11.07;;
2313;SDS011;42279;51.388;7.000;2022-08-19T00:33:32;11.50;;;10.80;;
2313;SDS011;42279;51.388;7.000;2022-08-19T00:35:59;11.68;;;10.88;;
2313;SDS011;42279;51.388;7.000;2022-08-19T00:38:26;11.38;;;10.68;;
2313;SDS011;42279;51.388;7.000;2022-08-19T00:40:52;11.30;;;10.60;;
2313;SDS011;42279;51.388;7.000;2022-08-19T00:43:18;11.50;;;10.90;;
2313;SDS011;42279;51.388;7.000;2022-08-19T00:45:45;11.90;;;11.23;;
2313;SDS011;42279;51.388;7.000;2022-08-19T00:48:12;12.43;;;11.63;;
2313;SDS011;42279;51.388;7.000;2022-08-19T00:50:39;12.30;;;11.50;;
2313;SDS011;42279;51.388;7.000;2022-08-19T00:53:07;11.63;;;10.93;;
2313;SDS011;42279;51.388;7.000;2022-08-19T00:55:35;12.07;;;11.10;;
2313;SDS011;42279;51.388;7.000;2022-08-19T00:58:03;11.90;;;11.20;;
2313;SDS011;42279;51.388;7.000;2022-08-19T01:00:30;12.20;;;11.40;;
2313;SDS011;42279;51.388;7.000;2022-08-19T01:02:56;13.00;;;11.82;;
2313;SDS011;42279;51.388;7.000;2022-08-19T01:05:24;12.90;;;12.10;;
2313;SDS011;42279;51.388;7.000;2022-08-19T01:07:52;13.67;;;12.57;;
2313;SDS011;42279;51.388;7.000;2022-08-19T01:10:20;13.32;;;12.32;;
2313;SDS011;42279;51.388;7.000;2022-08-19T01:12:48;13.13;;;12.23;;
2313;SDS011;42279;51.388;7.000;2022-08-19T01:15:16;17.13;;;15.82;;
2313;SDS011;42279;51.388;7.000;2022-08-19T01:17:43;15.40;;;14.30;;
2313;SDS011;42279;51.388;7.000;2022-08-19T01:20:11;15.77;;;14.68;;
2313;SDS011;42279;51.388;7.000;2022-08-19T01:22:40;14.70;;;13.50;;
2313;SDS011;42279;51.388;7.000;2022-08-19T01:25:08;14.77;;;13.75;;
2313;SDS011;42279;51.388;7.000;2022-08-19T01:27:39;15.82;;;14.63;;
2313;SDS011;42279;51.388;7.000;2022-08-19T01:30:07;13.90;;;12.80;;
2313;SDS011;42279;51.388;7.000;2022-08-19T01:32:33;13.75;;;12.85;;
2313;SDS011;42279;51.388;7.000;2022-08-19T01:35:00;13.50;;;12.60;;
2313;SDS011;42279;51.388;7.000;2022-08-19T01:37:27;13.45;;;12.65;;
2313;SDS011;42279;51.388;7.000;2022-08-19T01:39:53;12.85;;;12.05;;
2313;SDS011;42279;51.388;7.000;2022-08-19T01:42:19;13.40;;;12.40;;
2313;SDS011;42279;51.388;7.000;2022-08-19T01:44:47;15.00;;;14.00;;
2313;SDS011;42279;51.388;7.000;2022-08-19T01:47:13;14.57;;;13.48;;
2313;SDS011;42279;51.388;7.000;2022-08-19T01:49:40;15.80;;;14.40;;
2313;SDS011;42279;51.388;7.000;2022-08-19T01:52:06;14.23;;;13.13;;
2313;SDS011;42279;51.388;7.000;2022-08-19T01:54:32;13.20;;;12.20;;
2313;SDS011;42279;51.388;7.000;2022-08-19T01:57:08;12.70;;;11.80;;
2313;SDS011;42279;51.388;7.000;2022-08-19T01:59:36;12.30;;;11.60;;
2313;SDS011;42279;51.388;7.000;2022-08-19T02:02:03;12.20;;;11.30;;
2313;SDS011;42279;51.388;7.000;2022-08-19T02:04:32;12.57;;;11.68;;
2313;SDS011;42279;51.388;7.000;2022-08-19T02:06:58;12.65;;;11.85;;
2313;SDS011;42279;51.388;7.000;2022-08-19T02:09:24;12.05;;;11.35;;
2313;SDS011;42279;51.388;7.000;2022-08-19T02:11:50;13.00;;;12.10;;
2313;SDS011;42279;51.388;7.000;2022-08-19T02:14:16;11.80;;;11.10;;
2313;SDS011;42279;51.388;7.000;2022-08-19T02:16:42;12.70;;;11.80;;
2313;SDS011;42279;51.388;7.000;2022-08-19T02:19:08;13.30;;;12.30;;
2313;SDS011;42279;51.388;7.000;2022-08-19T02:21:35;13.50;;;12.40;;
2313;SDS011;42279;51.388;7.000;2022-08-19T02:24:01;13.02;;;12.13;;
2313;SDS011;42279;51.388;7.000;2022-08-19T02:26:31;12.60;;;11.60;;
2313;SDS011;42279;51.388;7.000;2022-08-19T02:29:07;12.02;;;11.30;;
2313;SDS011;42279;51.388;7.000;2022-08-19T02:31:41;12.15;;;11.35;;
2313;SDS011;42279;51.388;7.000;2022-08-19T02:34:10;12.60;;;11.70;;
2313;SDS011;42279;51.388;7.000;2022-08-19T02:36:40;12.10;;;11.30;;
2313;SDS011;42279;51.388;7.000;2022-08-19T02:39:07;13.00;;;12.00;;
2313;SDS011;42279;51.388;7.000;2022-08-19T02:41:33;13.20;;;12.20;;
2313;SDS011;42279;51.388;7.000;2022-08-19T02:44:02;13.25;;;12.25;;
2313;SDS011;42279;51.388;7.000;2022-08-19T02:46:30;13.90;;;12.98;;
2313;SDS011;42279;51.388;7.000;2022-08-19T02:48:58;12.82;;;12.02;;
2313;SDS011;42279;51.388;7.000;2022-08-19T02:51:28;12.68;;;11.88;;
2313;SDS011;42279;51.388;7.000;2022-08-19T02:53:55;12.25;;;11.45;;
2313;SDS011;42279;51.388;7.000;2022-08-19T02:56:44;13.75;;;12.85;;
2313;SDS011;42279;51.388;7.000;2022-08-19T02:59:11;13.73;;;12.73;;
2313;SDS011;42279;51.388;7.000;2022-08-19T03:01:38;13.23;;;12.27;;
2313;SDS011;42279;51.388;7.000;2022-08-19T03:04:05;13.30;;;12.40;;
2313;SDS011;42279;51.388;7.000;2022-08-19T03:06:32;12.30;;;11.40;;
2313;SDS011;42279;51.388;7.000;2022-08-19T03:08:58;12.95;;;11.55;;
2313;SDS011;42279;51.388;7.000;2022-08-19T03:11:26;12.63;;;11.85;;
2313;SDS011;42279;51.388;7.000;2022-08-19T03:13:53;12.77;;;11.88;;
2313;SDS011;42279;51.388;7.000;2022-08-19T03:16:23;12.50;;;11.80;;
2313;SDS011;42279;51.388;7.000;2022-08-19T03:18:49;13.13;;;12.02;;
2313;SDS011;42279;51.388;7.000;2022-08-19T03:21:21;12.70;;;11.82;;
2313;SDS011;42279;51.388;7.000;2022-08-19T03:23:48;12.57;;;11.77;;
2313;SDS011;42279;51.388;7.000;2022-08-19T03:26:14;13.48;;;12.48;;
2313;SDS011;42279;51.388;7.000;2022-08-19T03:28:41;13.25;;;12.25;;
2313;SDS011;42279;51.388;7.000;2022-08-19T03:31:10;14.27;;;13.18;;
2313;SDS011;42279;51.388;7.000;2022-08-19T03:33:37;13.40;;;12.50;;
2313;SDS011;42279;51.388;7.000;2022-08-19T03:36:05;14.20;;;13.25;;
2313;SDS011;42279;51.388;7.000;2022-08-19T03:38:32;15.70;;;14.50;;
2313;SDS011;42279;51.388;7.000;2022-08-19T03:41:02;15.13;;;13.82;;
2313;SDS011;42279;51.388;7.000;2022-08-19T03:43:28;16.92;;;15.35;;
2313;SDS011;42279;51.388;7.000;2022-08-19T03:46:01;15.77;;;14.68;;
2313;SDS011;42279;51.388;7.000;2022-08-19T03:48:29;15.73;;;14.52;;
2313;SDS011;42279;51.388;7.000;2022-08-19T03:50:55;16.45;;;15.15;;
2313;SDS011;42279;51.388;7.000;2022-08-19T03:53:23;15.77;;;14.63;;
2313;SDS011;42279;51.388;7.000;2022-08-19T03:55:54;16.92;;;15.52;;
2313;SDS011;42279;51.388;7.000;2022-08-19T03:58:21;17.00;;;15.88;;
2313;SDS011;42279;51.388;7.000;2022-08-19T04:00:47;15.82;;;14.63;;
2313;SDS011;42279;51.388;7.000;2022-08-19T04:03:13;16.58;;;15.27;;
2313;SDS011;42279;51.388;7.000;2022-08-19T04:05:39;17.52;;;16.13;;
2313;SDS011;42279;51.388;7.000;2022-08-19T04:08:05;18.30;;;16.80;;
2313;SDS011;42279;51.388;7.000;2022-08-19T04:10:35;17.60;;;16.10;;
2313;SDS011;42279;51.388;7.000;2022-08-19T04:13:03;17.08;;;15.68;;
2313;SDS011;42279;51.388;7.000;2022-08-19T04:15:44;16.40;;;15.20;;
2313;SDS011;42279;51.388;7.000;2022-08-19T04:18:12;16.80;;;15.50;;
2313;SDS011;42279;51.388;7.000;2022-08-19T04:20:39;16.77;;;15.43;;
2313;SDS011;42279;51.388;7.000;2022-08-19T04:23:05;17.70;;;16.20;;
2313;SDS011;42279;51.388;7.000;2022-08-19T04:25:39;16.63;;;15.32;;
2313;SDS011;42279;51.388;7.000;2022-08-19T04:28:05;17.20;;;15.90;;
2313;SDS011;42279;51.388;7.000;2022-08-19T04:30:48;17.20;;;15.80;;
2313;SDS011;42279;51.388;7.000;2022-08-19T04:33:16;16.30;;;15.00;;
2313;SDS011;42279;51.388;7.000;2022-08-19T04:35:43;17.83;;;15.98;;
2313;SDS011;42279;51.388;7.000;2022-08-19T04:38:13;16.25;;;14.85;;
2313;SDS011;42279;51.388;7.000;2022-08-19T04:40:39;16.67;;;15.37;;
2313;SDS011;42279;51.388;7.000;2022-08-19T04:43:24;15.75;;;14.65;;
2313;SDS011;42279;51.388;7.000;2022-08-19T04:45:50;17.17;;;15.77;;
2313;SDS011;42279;51.388;7.000;2022-08-19T04:48:17;17.00;;;15.30;;
2313;SDS011;42279;51.388;7.000;2022-08-19T04:51:05;18.58;;;17.17;;
2313;SDS011;42279;51.388;7.000;2022-08-19T04:53:32;15.40;;;14.30;;
2313;SDS011;42279;51.388;7.000;2022-08-19T04:55:59;17.10;;;15.60;;
2313;SDS011;42279;51.388;7.000;2022-08-19T04:58:27;15.40;;;14.27;;
2313;SDS011;42279;51.388;7.000;2022-08-19T05:00:53;16.80;;;15.60;;
2313;SDS011;42279;51.388;7.000;2022-08-19T05:03:22;16.77;;;15.32;;
2313;SDS011;42279;51.388;7.000;2022-08-19T05:05:48;16.57;;;15.27;;
2313;SDS011;42279;51.388;7.000;2022-08-19T05:08:15;17.92;;;16.35;;
2313;SDS011;42279;51.388;7.000;2022-08-19T05:10:45;18.00;;;16.30;;
2313;SDS011;42279;51.388;7.000;2022-08-19T05:13:12;18.02;;;16.52;;
2313;SDS011;42279;51.388;7.000;2022-08-19T05:15:58;17.80;;;16.30;;
2313;SDS011;42279;51.388;7.000;2022-08-19T05:18:25;17.80;;;16.50;;
2313;SDS011;42279;51.388;7.000;2022-08-19T05:21:11;17.67;;;15.98;;
2313;SDS011;42279;51.388;7.000;2022-08-19T05:23:56;16.70;;;15.40;;
2313;SDS011;42279;51.388;7.000;2022-08-19T05:26:24;17.00;;;15.80;;
2313;SDS011;42279;51.388;7.000;2022-08-19T05:28:56;17.65;;;16.15;;
2313;SDS011;42279;51.388;7.000;2022-08-19T05:31:25;20.40;;;18.40;;
2313;SDS011;42279;51.388;7.000;2022-08-19T05:34:00;17.20;;;15.70;;
2313;SDS011;42279;51.388;7.000;2022-08-19T05:36:29;23.35;;;21.35;;
2313;SDS011;42279;51.388;7.000;2022-08-19T05:39:04;17.95;;;16.35;;
2313;SDS011;42279;51.388;7.000;2022-08-19T05:41:34;17.83;;;16.25;;
2313;SDS011;42279;51.388;7.000;2022-08-19T05:44:04;17.13;;;15.80;;
2313;SDS011;42279;51.388;7.000;2022-08-19T05:49:25;19.98;;;18.27;;
2313;SDS011;42279;51.388;7.000;2022-08-19T05:52:33;16.95;;;15.65;;
2313;SDS011;42279;51.388;7.000;2022-08-19T05:55:14;15.82;;;14.45;;
2313;SDS011;42279;51.388;7.000;2022-08-19T05:57:47;17.17;;;15.57;;
2313;SDS011;42279;51.388;7.000;2022-08-19T06:03:18;15.33;;;14.07;;
2313;SDS011;42279;51.388;7.000;2022-08-19T06:05:50;14.82;;;13.68;;
2313;SDS011;42279;51.388;7.000;2022-08-19T06:08:16;13.00;;;12.10;;
2313;SDS011;42279;51.388;7.000;2022-08-19T06:10:43;14.25;;;13.15;;
2313;SDS011;42279;51.388;7.000;2022-08-19T06:13:09;14.00;;;12.90;;
2313;SDS011;42279;51.388;7.000;2022-08-19T06:15:37;14.52;;;13.32;;
2313;SDS011;42279;51.388;7.000;2022-08-19T06:18:06;14.17;;;12.97;;
2313;SDS011;42279;51.388;7.000;2022-08-19T06:20:43;14.77;;;13.68;;
2313;SDS011;42279;51.388;7.000;2022-08-19T06:23:34;15.05;;;13.95;;
2313;SDS011;42279;51.388;7.000;2022-08-19T06:26:03;16.83;;;15.43;;
2313;SDS011;42279;51.388;7.000;2022-08-19T06:28:30;16.60;;;15.30;;
2313;SDS011;42279;51.388;7.000;2022-08-19T06:34:24;21.40;;;19.60;;
2313;SDS011;42279;51.388;7.000;2022-08-19T06:39:51;24.43;;;22.23;;
2313;SDS011;42279;51.388;7.000;2022-08-19T06:47:29;30.27;;;27.30;;
2313;SDS011;42279;51.388;7.000;2022-08-19T06:50:04;28.73;;;25.92;;
2313;SDS011;42279;51.388;7.000;2022-08-19T06:55:22;30.10;;;27.20;;
2313;SDS011;42279;51.388;7.000;2022-08-19T06:57:48;31.58;;;28.48;;
2313;SDS011;42279;51.388;7.000;2022-08-19T07:05:46;30.67;;;27.40;;
2313;SDS011;42279;51.388;7.000;2022-08-19T07:08:12;30.17;;;27.27;;
2313;SDS011;42279;51.388;7.000;2022-08-19T07:10:42;31.05;;;27.73;;
2313;SDS011;42279;51.388;7.000;2022-08-19T07:13:08;31.80;;;28.65;;
2313;SDS011;42279;51.388;7.000;2022-08-19T07:15:35;30.43;;;27.63;;
2313;SDS011;42279;51.388;7.000;2022-08-19T07:18:02;34.80;;;31.40;;
2313;SDS011;42279;51.388;7.000;2022-08-19T07:20:29;33.15;;;30.05;;
2313;SDS011;42279;51.388;7.000;2022-08-19T07:22:58;32.33;;;29.52;;
2313;SDS011;42279;51.388;7.000;2022-08-19T07:25:24;34.00;;;30.90;;
2313;SDS011;42279;51.388;7.000;2022-08-19T07:27:50;33.70;;;30.50;;
2313;SDS011;42279;51.388;7.000;2022-08-19T07:30:17;34.40;;;31.20;;
2313;SDS011;42279;51.388;7.000;2022-08-19T07:32:43;33.65;;;30.65;;
2313;SDS011;42279;51.388;7.000;2022-08-19T07:35:09;35.50;;;32.20;;
2313;SDS011;42279;51.388;7.000;2022-08-19T07:37:36;37.30;;;33.70;;
2313;SDS011;42279;51.388;7.000;2022-08-19T07:40:04;37.40;;;33.70;;
2313;SDS011;42279;51.388;7.000;2022-08-19T07:42:30;38.50;;;34.70;;
2313;SDS011;42279;51.388;7.000;2022-08-19T07:44:57;40.40;;;36.20;;
2313;SDS011;42279;51.388;7.000;2022-08-19T07:47:24;39.63;;;35.92;;
2313;SDS011;42279;51.388;7.000;2022-08-19T07:49:50;40.67;;;36.97;;
2313;SDS011;42279;51.388;7.000;2022-08-19T07:52:16;41.80;;;37.80;;
2313;SDS011;42279;51.388;7.000;2022-08-19T07:54:42;42.70;;;38.80;;
2313;SDS011;42279;51.388;7.000;2022-08-19T07:57:08;43.57;;;39.17;;
2313;SDS011;42279;51.388;7.000;2022-08-19T07:59:35;44.05;;;39.75;;
2313;SDS011;42279;51.388;7.000;2022-08-19T08:02:01;42.20;;;38.17;;
2313;SDS011;42279;51.388;7.000;2022-08-19T08:04:28;43.63;;;39.25;;
2313;SDS011;42279;51.388;7.000;2022-08-19T08:07:13;42.28;;;38.28;;
2313;SDS011;42279;51.388;7.000;2022-08-19T08:09:58;41.58;;;37.88;;
2313;SDS011;42279;51.388;7.000;2022-08-19T08:12:27;42.88;;;38.88;;
2313;SDS011;42279;51.388;7.000;2022-08-19T08:14:55;41.70;;;38.00;;
2313;SDS011;42279;51.388;7.000;2022-08-19T08:17:22;42.88;;;38.38;;
2313;SDS011;42279;51.388;7.000;2022-08-19T08:19:49;42.95;;;38.95;;
2313;SDS011;42279;51.388;7.000;2022-08-19T08:22:16;41.00;;;37.30;;
2313;SDS011;42279;51.388;7.000;2022-08-19T08:25:03;41.75;;;38.15;;
2313;SDS011;42279;51.388;7.000;2022-08-19T08:27:35;38.92;;;35.42;;
2313;SDS011;42279;51.388;7.000;2022-08-19T08:30:02;38.07;;;34.77;;
2313;SDS011;42279;51.388;7.000;2022-08-19T08:32:31;40.30;;;36.30;;
2313;SDS011;42279;51.388;7.000;2022-08-19T08:34:57;40.90;;;37.25;;
2313;SDS011;42279;51.388;7.000;2022-08-19T08:37:23;41.63;;;38.00;;
2313;SDS011;42279;51.388;7.000;2022-08-19T08:39:49;40.90;;;37.20;;
2313;SDS011;42279;51.388;7.000;2022-08-19T08:42:30;43.25;;;39.20;;
2313;SDS011;42279;51.388;7.000;2022-08-19T08:44:59;42.85;;;39.05;;
2313;SDS011;42279;51.388;7.000;2022-08-19T08:47:26;41.72;;;38.13;;
2313;SDS011;42279;51.388;7.000;2022-08-19T08:49:59;42.47;;;38.78;;
2313;SDS011;42279;51.388;7.000;2022-08-19T08:52:33;38.33;;;35.20;;
2313;SDS011;42279;51.388;7.000;2022-08-19T08:55:04;36.45;;;33.40;;
2313;SDS011;42279;51.388;7.000;2022-08-19T08:57:32;36.63;;;33.53;;
2313;SDS011;42279;51.388;7.000;2022-08-19T09:00:09;33.95;;;30.95;;
2313;SDS011;42279;51.388;7.000;2022-08-19T09:02:35;30.13;;;27.70;;
2313;SDS011;42279;51.388;7.000;2022-08-19T09:05:02;30.52;;;27.80;;
2313;SDS011;42279;51.388;7.000;2022-08-19T09:10:32;31.02;;;28.52;;
2313;SDS011;42279;51.388;7.000;2022-08-19T09:16:10;34.42;;;26.08;;
2313;SDS011;42279;51.388;7.000;2022-08-19T09:18:39;23.60;;;21.40;;
2313;SDS011;42279;51.388;7.000;2022-08-19T09:21:13;25.50;;;23.20;;
2313;SDS011;42279;51.388;7.000;2022-08-19T09:23:39;22.58;;;20.83;;
2313;SDS011;42279;51.388;7.000;2022-08-19T09:26:06;21.92;;;20.23;;
2313;SDS011;42279;51.388;7.000;2022-08-19T09:28:33;19.20;;;17.70;;
2313;SDS011;42279;51.388;7.000;2022-08-19T09:30:59;21.50;;;19.80;;
2313;SDS011;42279;51.388;7.000;2022-08-19T09:33:25;20.30;;;18.70;;
2313;SDS011;42279;51.388;7.000;2022-08-19T09:36:00;19.15;;;17.55;;
2313;SDS011;42279;51.388;7.000;2022-08-19T09:38:28;18.02;;;16.55;;
2313;SDS011;42279;51.388;7.000;2022-08-19T09:40:54;18.80;;;17.20;;
2313;SDS011;42279;51.388;7.000;2022-08-19T09:43:20;16.80;;;15.60;;
2313;SDS011;42279;51.388;7.000;2022-08-19T09:45:46;18.77;;;17.17;;
2313;SDS011;42279;51.388;7.000;2022-08-19T09:48:15;17.80;;;16.40;;
2313;SDS011;42279;51.388;7.000;2022-08-19T09:50:43;16.77;;;15.63;;
2313;SDS011;42279;51.388;7.000;2022-08-19T09:53:17;15.68;;;14.68;;
2313;SDS011;42279;51.388;7.000;2022-08-19T09:55:43;14.60;;;13.60;;
2313;SDS011;42279;51.388;7.000;2022-08-19T09:58:09;14.15;;;13.25;;
2313;SDS011;42279;51.388;7.000;2022-08-19T10:00:38;15.95;;;14.65;;
2313;SDS011;42279;51.388;7.000;2022-08-19T10:03:07;15.10;;;14.00;;
2313;SDS011;42279;51.388;7.000;2022-08-19T10:05:33;16.83;;;15.70;;
2313;SDS011;42279;51.388;7.000;2022-08-19T10:08:19;17.40;;;16.20;;
2313;SDS011;42279;51.388;7.000;2022-08-19T10:10:46;17.90;;;16.52;;
2313;SDS011;42279;51.388;7.000;2022-08-19T10:13:15;18.83;;;17.33;;
2313;SDS011;42279;51.388;7.000;2022-08-19T10:15:43;17.42;;;16.13;;
2313;SDS011;42279;51.388;7.000;2022-08-19T10:18:09;18.60;;;17.30;;
2313;SDS011;42279;51.388;7.000;2022-08-19T10:21:05;19.20;;;17.70;;
2313;SDS011;42279;51.388;7.000;2022-08-19T10:23:38;19.73;;;18.13;;
2313;SDS011;42279;51.388;7.000;2022-08-19T10:26:09;20.45;;;18.77;;
2313;SDS011;42279;51.388;7.000;2022-08-19T10:28:35;23.15;;;21.45;;
2313;SDS011;42279;51.388;7.000;2022-08-19T10:31:05;25.73;;;23.52;;
2313;SDS011;42279;51.388;7.000;2022-08-19T10:33:32;23.63;;;21.73;;
2313;SDS011;42279;51.388;7.000;2022-08-19T10:35:59;26.20;;;24.10;;
2313;SDS011;42279;51.388;7.000;2022-08-19T10:38:25;22.30;;;20.70;;
2313;SDS011;42279;51.388;7.000;2022-08-19T10:40:51;21.13;;;19.70;;
2313;SDS011;42279;51.388;7.000;2022-08-19T10:43:17;25.60;;;23.60;;
2313;SDS011;42279;51.388;7.000;2022-08-19T10:45:48;24.10;;;22.17;;
2313;SDS011;42279;51.388;7.000;2022-08-19T10:48:14;24.63;;;22.70;;
2313;SDS011;42279;51.388;7.000;2022-08-19T10:50:40;23.00;;;20.80;;
2313;SDS011;42279;51.388;7.000;2022-08-19T10:53:25;20.77;;;19.13;;
2313;SDS011;42279;51.388;7.000;2022-08-19T10:55:51;21.30;;;19.27;;
2313;SDS011;42279;51.388;7.000;2022-08-19T10:58:35;19.03;;;17.63;;
2313;SDS011;42279;51.388;7.000;2022-08-19T11:01:01;23.47;;;21.67;;
2313;SDS011;42279;51.388;7.000;2022-08-19T11:03:27;22.97;;;21.17;;
2313;SDS011;42279;51.388;7.000;2022-08-19T11:05:59;22.27;;;20.43;;
2313;SDS011;42279;51.388;7.000;2022-08-19T11:08:25;25.00;;;23.20;;
2313;SDS011;42279;51.388;7.000;2022-08-19T11:10:52;25.47;;;23.37;;
2313;SDS011;42279;51.388;7.000;2022-08-19T11:13:21;48.42;;;43.63;;
2313;SDS011;42279;51.388;7.000;2022-08-19T11:15:55;22.30;;;20.40;;
2313;SDS011;42279;51.388;7.000;2022-08-19T11:18:21;20.70;;;19.30;;
2313;SDS011;42279;51.388;7.000;2022-08-19T11:20:48;19.13;;;17.77;;
2313;SDS011;42279;51.388;7.000;2022-08-19T11:23:14;20.07;;;18.57;;
2313;SDS011;42279;51.388;7.000;2022-08-19T11:25:40;18.80;;;17.53;;
2313;SDS011;42279;51.388;7.000;2022-08-19T11:28:06;18.90;;;17.50;;
2313;SDS011;42279;51.388;7.000;2022-08-19T11:30:32;20.00;;;18.70;;
2313;SDS011;42279;51.388;7.000;2022-08-19T11:32:59;19.87;;;18.57;;
2313;SDS011;42279;51.388;7.000;2022-08-19T11:35:26;18.53;;;17.23;;
2313;SDS011;42279;51.388;7.000;2022-08-19T11:37:53;20.70;;;18.80;;
2313;SDS011;42279;51.388;7.000;2022-08-19T11:40:19;18.77;;;17.43;;
2313;SDS011;42279;51.388;7.000;2022-08-19T11:42:45;17.10;;;15.70;;
2313;SDS011;42279;51.388;7.000;2022-08-19T11:45:20;19.17;;;17.67;;
2313;SDS011;42279;51.388;7.000;2022-08-19T11:47:46;18.37;;;17.03;;
2313;SDS011;42279;51.388;7.000;2022-08-19T11:50:13;17.33;;;16.13;;
2313;SDS011;42279;51.388;7.000;2022-08-19T11:52:39;17.00;;;15.67;;
2313;SDS011;42279;51.388;7.000;2022-08-19T11:55:09;14.60;;;13.60;;
2313;SDS011;42279;51.388;7.000;2022-08-19T11:57:35;15.13;;;13.90;;
2313;SDS011;42279;51.388;7.000;2022-08-19T12:00:02;15.27;;;14.17;;
2313;SDS011;42279;51.388;7.000;2022-08-19T12:02:29;13.90;;;13.20;;
2313;SDS011;42279;51.388;7.000;2022-08-19T12:04:55;13.20;;;12.37;;
2313;SDS011;42279;51.388;7.000;2022-08-19T12:07:21;13.50;;;12.65;;
2313;SDS011;42279;51.388;7.000;2022-08-19T12:09:47;12.73;;;11.83;;
2313;SDS011;42279;51.388;7.000;2022-08-19T12:12:16;14.57;;;13.67;;
2313;SDS011;42279;51.388;7.000;2022-08-19T12:14:46;12.27;;;11.40;;
2313;SDS011;42279;51.388;7.000;2022-08-19T12:17:12;10.70;;;10.20;;
2313;SDS011;42279;51.388;7.000;2022-08-19T12:19:38;10.33;;;9.83;;
2313;SDS011;42279;51.388;7.000;2022-08-19T12:22:04;9.00;;;8.60;;
2313;SDS011;42279;51.388;7.000;2022-08-19T12:24:32;9.43;;;8.83;;
2313;SDS011;42279;51.388;7.000;2022-08-19T12:26:58;9.53;;;8.93;;
2313;SDS011;42279;51.388;7.000;2022-08-19T12:29:26;10.50;;;9.80;;
2313;SDS011;42279;51.388;7.000;2022-08-19T12:31:54;10.77;;;10.20;;
2313;SDS011;42279;51.388;7.000;2022-08-19T12:34:26;10.10;;;9.50;;
2313;SDS011;42279;51.388;7.000;2022-08-19T12:36:55;10.43;;;9.83;;
2313;SDS011;42279;51.388;7.000;2022-08-19T12:39:21;8.93;;;8.53;;
2313;SDS011;42279;51.388;7.000;2022-08-19T12:41:47;10.70;;;10.10;;
2313;SDS011;42279;51.388;7.000;2022-08-19T12:44:13;10.83;;;9.90;;
2313;SDS011;42279;51.388;7.000;2022-08-19T12:46:40;10.00;;;9.37;;
2313;SDS011;42279;51.388;7.000;2022-08-19T12:49:06;10.63;;;9.73;;
2313;SDS011;42279;51.388;7.000;2022-08-19T12:51:32;9.93;;;9.33;;
2313;SDS011;42279;51.388;7.000;2022-08-19T12:53:58;8.60;;;8.20;;
2313;SDS011;42279;51.388;7.000;2022-08-19T12:56:27;8.63;;;8.23;;
2313;SDS011;42279;51.388;7.000;2022-08-19T12:58:56;9.43;;;8.70;;
2313;SDS011;42279;51.388;7.000;2022-08-19T13:01:22;8.40;;;8.10;;
2313;SDS011;42279;51.388;7.000;2022-08-19T13:03:48;7.70;;;7.37;;
2313;SDS011;42279;51.388;7.000;2022-08-19T13:06:17;7.23;;;6.93;;
2313;SDS011;42279;51.388;7.000;2022-08-19T13:08:46;9.20;;;8.37;;
2313;SDS011;42279;51.388;7.000;2022-08-19T13:11:13;8.70;;;8.10;;
2313;SDS011;42279;51.388;7.000;2022-08-19T13:13:40;9.93;;;8.87;;
2313;SDS011;42279;51.388;7.000;2022-08-19T13:16:07;11.03;;;10.20;;
2313;SDS011;42279;51.388;7.000;2022-08-19T13:18:34;8.83;;;8.43;;
2313;SDS011;42279;51.388;7.000;2022-08-19T13:21:04;8.70;;;8.23;;
2313;SDS011;42279;51.388;7.000;2022-08-19T13:23:31;9.17;;;8.73;;
2313;SDS011;42279;51.388;7.000;2022-08-19T13:25:58;8.17;;;7.70;;
2313;SDS011;42279;51.388;7.000;2022-08-19T13:28:30;9.13;;;8.47;;
2313;SDS011;42279;51.388;7.000;2022-08-19T13:31:17;8.03;;;7.53;;
2313;SDS011;42279;51.388;7.000;2022-08-19T13:34:02;7.80;;;7.13;;
2313;SDS011;42279;51.388;7.000;2022-08-19T13:36:28;6.87;;;6.60;;
2313;SDS011;42279;51.388;7.000;2022-08-19T13:38:54;7.33;;;7.03;;
2313;SDS011;42279;51.388;7.000;2022-08-19T13:41:21;6.57;;;6.27;;
2313;SDS011;42279;51.388;7.000;2022-08-19T13:43:47;7.20;;;6.90;;
2313;SDS011;42279;51.388;7.000;2022-08-19T13:46:14;6.73;;;6.53;;
2313;SDS011;42279;51.388;7.000;2022-08-19T13:48:41;7.40;;;6.90;;
2313;SDS011;42279;51.388;7.000;2022-08-19T13:51:08;7.67;;;7.37;;
2313;SDS011;42279;51.388;7.000;2022-08-19T13:53:35;7.63;;;7.30;;
2313;SDS011;42279;51.388;7.000;2022-08-19T13:56:05;9.33;;;6.97;;
2313;SDS011;42279;51.388;7.000;2022-08-19T13:58:31;7.53;;;7.13;;
2313;SDS011;42279;51.388;7.000;2022-08-19T14:00:57;7.03;;;6.67;;
2313;SDS011;42279;51.388;7.000;2022-08-19T14:03:24;6.90;;;6.50;;
2313;SDS011;42279;51.388;7.000;2022-08-19T14:05:50;6.10;;;5.80;;
2313;SDS011;42279;51.388;7.000;2022-08-19T14:08:16;5.50;;;5.40;;
2313;SDS011;42279;51.388;7.000;2022-08-19T14:10:45;5.60;;;5.40;;
2313;SDS011;42279;51.388;7.000;2022-08-19T14:13:13;5.70;;;5.50;;
2313;SDS011;42279;51.388;7.000;2022-08-19T14:15:40;6.27;;;5.90;;
2313;SDS011;42279;51.388;7.000;2022-08-19T14:18:06;6.13;;;5.82;;
2313;SDS011;42279;51.388;7.000;2022-08-19T14:20:36;6.10;;;5.90;;
2313;SDS011;42279;51.388;7.000;2022-08-19T14:23:02;5.77;;;5.57;;
2313;SDS011;42279;51.388;7.000;2022-08-19T14:25:30;5.63;;;5.50;;
2313;SDS011;42279;51.388;7.000;2022-08-19T14:28:03;5.70;;;5.50;;
2313;SDS011;42279;51.388;7.000;2022-08-19T14:30:32;6.63;;;6.43;;
2313;SDS011;42279;51.388;7.000;2022-08-19T14:35:50;7.00;;;6.50;;
2313;SDS011;42279;51.388;7.000;2022-08-19T14:41:13;6.17;;;5.90;;
2313;SDS011;42279;51.388;7.000;2022-08-19T14:43:54;6.60;;;6.30;;
2313;SDS011;42279;51.388;7.000;2022-08-19T14:46:38;6.20;;;6.00;;
2313;SDS011;42279;51.388;7.000;2022-08-19T14:49:23;8.07;;;7.40;;
2313;SDS011;42279;51.388;7.000;2022-08-19T15:36:48;6.87;;;6.20;;
2313;SDS011;42279;51.388;7.000;2022-08-19T15:39:27;5.80;;;5.57;;
2313;SDS011;42279;51.388;7.000;2022-08-19T15:49:57;5.73;;;5.40;;
2313;SDS011;42279;51.388;7.000;2022-08-19T15:52:23;6.43;;;6.03;;
2313;SDS011;42279;51.388;7.000;2022-08-19T15:54:56;5.70;;;5.50;;
2313;SDS011;42279;51.388;7.000;2022-08-19T15:57:41;6.20;;;5.83;;
2313;SDS011;42279;51.388;7.000;2022-08-19T16:03:40;6.10;;;5.70;;
2313;SDS011;42279;51.388;7.000;2022-08-19T16:06:43;6.30;;;5.90;;
2313;SDS011;42279;51.388;7.000;2022-08-19T16:12:47;5.37;;;5.07;;
2313;SDS011;42279;51.388;7.000;2022-08-19T16:15:00;4.90;;;4.80;;
2313;SDS011;42279;51.388;7.000;2022-08-19T16:17:26;4.50;;;4.40;;
2313;SDS011;42279;51.388;7.000;2022-08-19T16:19:52;4.93;;;4.63;;
2313;SDS011;42279;51.388;7.000;2022-08-19T16:22:19;4.50;;;4.40;;
2313;SDS011;42279;51.388;7.000;2022-08-19T16:24:45;5.87;;;5.57;;
2313;SDS011;42279;51.388;7.000;2022-08-19T16:27:11;5.77;;;5.57;;
2313;SDS011;42279;51.388;7.000;2022-08-19T16:29:37;6.53;;;5.50;;